sensor_id;sensor_type;location;lat;lon;timestamp;temperature;humidity
57709;SHT35;42558;52.388;13.390;2023-05-16T00:00:15;12.59;81.40
57709;SHT35;42558;52.388;13.390;2023-05-16T00:02:43;12.56;81.47
57709;SHT35;42558;52.388;13.390;2023-05-16T00:05:12;12.53;81.65
57709;SHT35;42558;52.388;13.390;2023-05-16T00:07:44;12.49;81.71
57709;SHT35;42558;52.388;13.390;2023-05-16T00:10:16;12.46;81.90
57709;SHT35;42558;52.388;13.390;2023-05-16T00:12:46;12.47;82.03
57709;SHT35;42558;52.388;13.390;2023-05-16T00:15:19;12.47;82.01
57709;SHT35;42558;52.388;13.390;2023-05-16T00:17:51;12.47;82.16
57709;SHT35;42558;52.388;13.390;2023-05-16T00:20:26;12.47;82.20
57709;SHT35;42558;52.388;13.390;2023-05-16T00:22:57;12.49;82.27
57709;SHT35;42558;52.388;13.390;2023-05-16T00:25:30;12.49;82.26
57709;SHT35;42558;52.388;13.390;2023-05-16T00:28:00;12.49;82.38
57709;SHT35;42558;52.388;13.390;2023-05-16T00:30:30;12.50;82.39
57709;SHT35;42558;52.388;13.390;2023-05-16T00:33:00;12.51;82.50
57709;SHT35;42558;52.388;13.390;2023-05-16T00:35:30;12.51;82.70
57709;SHT35;42558;52.388;13.390;2023-05-16T00:38:00;12.48;82.81
57709;SHT35;42558;52.388;13.390;2023-05-16T00:40:30;12.47;82.95
57709;SHT35;42558;52.388;13.390;2023-05-16T00:43:01;12.45;83.17
57709;SHT35;42558;52.388;13.390;2023-05-16T00:45:30;12.44;83.46
57709;SHT35;42558;52.388;13.390;2023-05-16T00:48:00;12.42;83.76
57709;SHT35;42558;52.388;13.390;2023-05-16T00:50:32;12.41;83.95
57709;SHT35;42558;52.388;13.390;2023-05-16T00:53:03;12.41;84.34
57709;SHT35;42558;52.388;13.390;2023-05-16T00:55:33;12.42;84.33
57709;SHT35;42558;52.388;13.390;2023-05-16T00:58:03;12.44;84.58
57709;SHT35;42558;52.388;13.390;2023-05-16T01:00:34;12.43;84.66
57709;SHT35;42558;52.388;13.390;2023-05-16T01:03:04;12.41;84.83
57709;SHT35;42558;52.388;13.390;2023-05-16T01:05:35;12.41;84.94
57709;SHT35;42558;52.388;13.390;2023-05-16T01:08:05;12.43;84.95
57709;SHT35;42558;52.388;13.390;2023-05-16T01:20:34;12.41;85.08
57709;SHT35;42558;52.388;13.390;2023-05-16T01:26:25;12.42;85.10
57709;SHT35;42558;52.388;13.390;2023-05-16T01:28:54;12.40;85.05
57709;SHT35;42558;52.388;13.390;2023-05-16T01:31:23;12.40;84.96
57709;SHT35;42558;52.388;13.390;2023-05-16T01:33:51;12.41;84.87
57709;SHT35;42558;52.388;13.390;2023-05-16T01:36:25;12.37;84.80
57709;SHT35;42558;52.388;13.390;2023-05-16T01:42:15;12.22;84.11
57709;SHT35;42558;52.388;13.390;2023-05-16T01:44:54;12.15;83.89
57709;SHT35;42558;52.388;13.390;2023-05-16T01:47:31;12.05;83.90
57709;SHT35;42558;52.388;13.390;2023-05-16T01:50:15;12.05;83.96
57709;SHT35;42558;52.388;13.390;2023-05-16T01:52:52;12.02;84.17
57709;SHT35;42558;52.388;13.390;2023-05-16T01:55:48;11.96;84.48
57709;SHT35;42558;52.388;13.390;2023-05-16T01:58:21;11.90;84.65
57709;SHT35;42558;52.388;13.390;2023-05-16T02:01:01;11.80;84.70
57709;SHT35;42558;52.388;13.390;2023-05-16T02:03:32;11.75;84.59
57709;SHT35;42558;52.388;13.390;2023-05-16T02:06:03;11.72;84.10
57709;SHT35;42558;52.388;13.390;2023-05-16T02:08:33;11.66;83.59
57709;SHT35;42558;52.388;13.390;2023-05-16T02:11:03;11.65;83.58
57709;SHT35;42558;52.388;13.390;2023-05-16T02:13:33;11.63;83.56
57709;SHT35;42558;52.388;13.390;2023-05-16T02:16:03;11.63;83.40
57709;SHT35;42558;52.388;13.390;2023-05-16T02:18:31;11.59;83.35
57709;SHT35;42558;52.388;13.390;2023-05-16T02:20:59;11.56;83.34
57709;SHT35;42558;52.388;13.390;2023-05-16T02:23:28;11.58;83.45
57709;SHT35;42558;52.388;13.390;2023-05-16T02:25:56;11.59;83.61
57709;SHT35;42558;52.388;13.390;2023-05-16T02:28:25;11.60;83.82
57709;SHT35;42558;52.388;13.390;2023-05-16T02:31:00;11.58;83.89
57709;SHT35;42558;52.388;13.390;2023-05-16T02:33:28;11.54;83.80
57709;SHT35;42558;52.388;13.390;2023-05-16T02:35:56;11.52;83.65
57709;SHT35;42558;52.388;13.390;2023-05-16T02:38:24;11.48;83.49
57709;SHT35;42558;52.388;13.390;2023-05-16T02:40:53;11.44;83.29
57709;SHT35;42558;52.388;13.390;2023-05-16T02:43:21;11.42;83.33
57709;SHT35;42558;52.388;13.390;2023-05-16T02:45:50;11.43;83.32
57709;SHT35;42558;52.388;13.390;2023-05-16T02:48:18;11.44;83.43
57709;SHT35;42558;52.388;13.390;2023-05-16T02:50:47;11.43;83.29
57709;SHT35;42558;52.388;13.390;2023-05-16T02:53:15;11.41;83.21
57709;SHT35;42558;52.388;13.390;2023-05-16T02:55:44;11.39;83.06
57709;SHT35;42558;52.388;13.390;2023-05-16T02:58:12;11.40;83.09
57709;SHT35;42558;52.388;13.390;2023-05-16T03:00:40;11.38;83.09
57709;SHT35;42558;52.388;13.390;2023-05-16T03:03:09;11.35;83.04
57709;SHT35;42558;52.388;13.390;2023-05-16T03:05:37;11.33;82.99
57709;SHT35;42558;52.388;13.390;2023-05-16T03:08:06;11.31;82.96
57709;SHT35;42558;52.388;13.390;2023-05-16T03:10:34;11.28;82.92
57709;SHT35;42558;52.388;13.390;2023-05-16T03:13:05;11.25;83.06
57709;SHT35;42558;52.388;13.390;2023-05-16T03:15:32;11.22;83.02
57709;SHT35;42558;52.388;13.390;2023-05-16T03:18:00;11.20;83.06
57709;SHT35;42558;52.388;13.390;2023-05-16T03:20:27;11.17;82.97
57709;SHT35;42558;52.388;13.390;2023-05-16T03:22:56;11.14;82.98
57709;SHT35;42558;52.388;13.390;2023-05-16T03:25:24;11.12;83.03
57709;SHT35;42558;52.388;13.390;2023-05-16T03:27:53;11.08;83.09
57709;SHT35;42558;52.388;13.390;2023-05-16T03:30:21;11.03;83.27
57709;SHT35;42558;52.388;13.390;2023-05-16T03:32:50;11.03;83.28
57709;SHT35;42558;52.388;13.390;2023-05-16T03:35:18;11.04;83.30
57709;SHT35;42558;52.388;13.390;2023-05-16T03:37:47;11.01;83.34
57709;SHT35;42558;52.388;13.390;2023-05-16T03:40:17;10.98;83.37
57709;SHT35;42558;52.388;13.390;2023-05-16T03:42:45;10.88;83.43
57709;SHT35;42558;52.388;13.390;2023-05-16T03:45:14;10.85;83.62
57709;SHT35;42558;52.388;13.390;2023-05-16T03:47:44;10.89;83.70
57709;SHT35;42558;52.388;13.390;2023-05-16T03:50:12;10.93;83.56
57709;SHT35;42558;52.388;13.390;2023-05-16T03:52:41;10.87;83.39
57709;SHT35;42558;52.388;13.390;2023-05-16T03:55:09;10.78;83.55
57709;SHT35;42558;52.388;13.390;2023-05-16T03:57:41;10.78;83.64
57709;SHT35;42558;52.388;13.390;2023-05-16T04:00:12;10.75;83.69
57709;SHT35;42558;52.388;13.390;2023-05-16T04:02:40;10.75;83.72
57709;SHT35;42558;52.388;13.390;2023-05-16T04:05:09;10.73;83.67
57709;SHT35;42558;52.388;13.390;2023-05-16T04:07:40;10.73;83.76
57709;SHT35;42558;52.388;13.390;2023-05-16T04:10:10;10.75;83.67
57709;SHT35;42558;52.388;13.390;2023-05-16T04:12:39;10.72;83.66
57709;SHT35;42558;52.388;13.390;2023-05-16T04:15:08;10.65;83.83
57709;SHT35;42558;52.388;13.390;2023-05-16T04:17:36;10.63;84.03
57709;SHT35;42558;52.388;13.390;2023-05-16T04:20:06;10.66;84.06
57709;SHT35;42558;52.388;13.390;2023-05-16T04:22:35;10.65;84.06
57709;SHT35;42558;52.388;13.390;2023-05-16T04:25:03;10.59;84.05
57709;SHT35;42558;52.388;13.390;2023-05-16T04:27:33;10.56;84.23
57709;SHT35;42558;52.388;13.390;2023-05-16T04:30:01;10.64;84.28
57709;SHT35;42558;52.388;13.390;2023-05-16T04:32:30;10.62;84.00
57709;SHT35;42558;52.388;13.390;2023-05-16T04:35:03;10.56;84.11
57709;SHT35;42558;52.388;13.390;2023-05-16T04:37:34;10.50;84.16
57709;SHT35;42558;52.388;13.390;2023-05-16T04:40:04;10.50;84.37
57709;SHT35;42558;52.388;13.390;2023-05-16T04:42:36;10.50;84.37
57709;SHT35;42558;52.388;13.390;2023-05-16T04:45:05;10.48;84.48
57709;SHT35;42558;52.388;13.390;2023-05-16T04:47:36;10.46;84.53
57709;SHT35;42558;52.388;13.390;2023-05-16T04:50:07;10.39;84.22
57709;SHT35;42558;52.388;13.390;2023-05-16T04:52:38;10.40;84.07
57709;SHT35;42558;52.388;13.390;2023-05-16T04:55:08;10.42;83.94
57709;SHT35;42558;52.388;13.390;2023-05-16T04:57:39;10.40;83.79
57709;SHT35;42558;52.388;13.390;2023-05-16T05:00:09;10.42;83.79
57709;SHT35;42558;52.388;13.390;2023-05-16T05:02:40;10.42;83.90
57709;SHT35;42558;52.388;13.390;2023-05-16T05:05:10;10.41;84.00
57709;SHT35;42558;52.388;13.390;2023-05-16T05:07:39;10.46;84.16
57709;SHT35;42558;52.388;13.390;2023-05-16T05:10:07;10.43;83.91
57709;SHT35;42558;52.388;13.390;2023-05-16T05:12:39;10.38;83.75
57709;SHT35;42558;52.388;13.390;2023-05-16T05:15:09;10.40;83.85
57709;SHT35;42558;52.388;13.390;2023-05-16T05:17:39;10.43;83.61
57709;SHT35;42558;52.388;13.390;2023-05-16T05:20:10;10.39;83.50
57709;SHT35;42558;52.388;13.390;2023-05-16T05:22:41;10.38;83.47
57709;SHT35;42558;52.388;13.390;2023-05-16T05:25:11;10.36;83.21
57709;SHT35;42558;52.388;13.390;2023-05-16T05:27:41;10.37;83.38
57709;SHT35;42558;52.388;13.390;2023-05-16T05:30:11;10.36;83.41
57709;SHT35;42558;52.388;13.390;2023-05-16T05:32:41;10.32;83.25
57709;SHT35;42558;52.388;13.390;2023-05-16T05:35:10;10.31;83.35
57709;SHT35;42558;52.388;13.390;2023-05-16T05:37:39;10.35;83.17
57709;SHT35;42558;52.388;13.390;2023-05-16T05:40:09;10.39;83.01
57709;SHT35;42558;52.388;13.390;2023-05-16T05:42:39;10.43;82.89
57709;SHT35;42558;52.388;13.390;2023-05-16T05:45:08;10.50;82.77
57709;SHT35;42558;52.388;13.390;2023-05-16T05:47:39;10.57;82.70
57709;SHT35;42558;52.388;13.390;2023-05-16T05:50:10;10.59;82.78
57709;SHT35;42558;52.388;13.390;2023-05-16T05:52:41;10.60;82.69
57709;SHT35;42558;52.388;13.390;2023-05-16T05:55:10;10.55;82.56
57709;SHT35;42558;52.388;13.390;2023-05-16T05:57:37;10.60;82.39
57709;SHT35;42558;52.388;13.390;2023-05-16T06:00:05;10.61;82.06
57709;SHT35;42558;52.388;13.390;2023-05-16T06:02:35;10.65;81.98
57709;SHT35;42558;52.388;13.390;2023-05-16T06:05:06;10.67;81.75
57709;SHT35;42558;52.388;13.390;2023-05-16T06:07:36;10.72;81.63
57709;SHT35;42558;52.388;13.390;2023-05-16T06:10:06;10.76;81.33
57709;SHT35;42558;52.388;13.390;2023-05-16T06:12:37;10.78;81.23
57709;SHT35;42558;52.388;13.390;2023-05-16T06:15:07;10.85;80.70
57709;SHT35;42558;52.388;13.390;2023-05-16T06:17:38;10.88;80.13
57709;SHT35;42558;52.388;13.390;2023-05-16T06:20:08;10.85;79.87
57709;SHT35;42558;52.388;13.390;2023-05-16T06:22:39;10.83;79.94
57709;SHT35;42558;52.388;13.390;2023-05-16T06:25:09;10.86;79.80
57709;SHT35;42558;52.388;13.390;2023-05-16T06:27:39;10.88;79.69
57709;SHT35;42558;52.388;13.390;2023-05-16T06:30:09;10.89;79.34
57709;SHT35;42558;52.388;13.390;2023-05-16T06:32:39;10.86;79.41
57709;SHT35;42558;52.388;13.390;2023-05-16T06:35:09;10.83;79.30
57709;SHT35;42558;52.388;13.390;2023-05-16T06:37:39;10.83;79.26
57709;SHT35;42558;52.388;13.390;2023-05-16T06:40:11;10.95;79.45
57709;SHT35;42558;52.388;13.390;2023-05-16T06:42:41;11.02;79.12
57709;SHT35;42558;52.388;13.390;2023-05-16T06:45:11;11.06;79.08
57709;SHT35;42558;52.388;13.390;2023-05-16T06:47:41;11.14;78.70
57709;SHT35;42558;52.388;13.390;2023-05-16T06:50:11;11.14;78.59
57709;SHT35;42558;52.388;13.390;2023-05-16T06:52:41;11.15;78.77
57709;SHT35;42558;52.388;13.390;2023-05-16T06:55:11;11.12;78.80
57709;SHT35;42558;52.388;13.390;2023-05-16T06:57:41;11.09;78.73
57709;SHT35;42558;52.388;13.390;2023-05-16T07:00:11;11.02;78.51
57709;SHT35;42558;52.388;13.390;2023-05-16T07:02:42;11.01;78.30
57709;SHT35;42558;52.388;13.390;2023-05-16T07:05:12;10.96;78.02
57709;SHT35;42558;52.388;13.390;2023-05-16T07:07:42;10.96;78.29
57709;SHT35;42558;52.388;13.390;2023-05-16T07:10:12;11.01;77.98
57709;SHT35;42558;52.388;13.390;2023-05-16T07:12:42;11.00;78.05
57709;SHT35;42558;52.388;13.390;2023-05-16T07:15:12;11.00;77.96
57709;SHT35;42558;52.388;13.390;2023-05-16T07:17:42;11.10;77.77
57709;SHT35;42558;52.388;13.390;2023-05-16T07:20:12;11.12;77.31
57709;SHT35;42558;52.388;13.390;2023-05-16T07:22:43;11.18;77.55
57709;SHT35;42558;52.388;13.390;2023-05-16T07:25:13;11.27;77.27
57709;SHT35;42558;52.388;13.390;2023-05-16T07:27:44;11.24;77.15
57709;SHT35;42558;52.388;13.390;2023-05-16T07:30:14;11.33;77.02
57709;SHT35;42558;52.388;13.390;2023-05-16T07:32:44;11.41;76.88
57709;SHT35;42558;52.388;13.390;2023-05-16T07:35:14;11.38;76.77
57709;SHT35;42558;52.388;13.390;2023-05-16T07:37:44;11.46;76.74
57709;SHT35;42558;52.388;13.390;2023-05-16T07:40:14;11.55;76.52
57709;SHT35;42558;52.388;13.390;2023-05-16T07:42:46;11.66;76.18
57709;SHT35;42558;52.388;13.390;2023-05-16T07:45:16;11.60;76.36
57709;SHT35;42558;52.388;13.390;2023-05-16T07:47:46;11.73;75.97
57709;SHT35;42558;52.388;13.390;2023-05-16T07:50:16;11.61;76.03
57709;SHT35;42558;52.388;13.390;2023-05-16T07:52:46;11.70;76.16
57709;SHT35;42558;52.388;13.390;2023-05-16T07:55:16;11.82;75.69
57709;SHT35;42558;52.388;13.390;2023-05-16T07:57:47;11.97;75.31
57709;SHT35;42558;52.388;13.390;2023-05-16T08:00:18;12.02;74.21
57709;SHT35;42558;52.388;13.390;2023-05-16T08:02:49;11.96;74.24
57709;SHT35;42558;52.388;13.390;2023-05-16T08:05:20;11.79;74.40
57709;SHT35;42558;52.388;13.390;2023-05-16T08:07:50;11.72;75.09
57709;SHT35;42558;52.388;13.390;2023-05-16T08:10:20;11.70;75.40
57709;SHT35;42558;52.388;13.390;2023-05-16T08:12:51;11.72;75.44
57709;SHT35;42558;52.388;13.390;2023-05-16T08:15:22;11.73;75.37
57709;SHT35;42558;52.388;13.390;2023-05-16T08:17:56;11.70;75.52
57709;SHT35;42558;52.388;13.390;2023-05-16T08:20:27;11.67;75.76
57709;SHT35;42558;52.388;13.390;2023-05-16T08:22:57;11.71;75.60
57709;SHT35;42558;52.388;13.390;2023-05-16T08:25:27;11.76;75.66
57709;SHT35;42558;52.388;13.390;2023-05-16T08:27:57;11.71;75.52
57709;SHT35;42558;52.388;13.390;2023-05-16T08:30:27;11.77;75.48
57709;SHT35;42558;52.388;13.390;2023-05-16T08:32:58;11.81;75.28
57709;SHT35;42558;52.388;13.390;2023-05-16T08:35:28;11.86;74.90
57709;SHT35;42558;52.388;13.390;2023-05-16T08:37:58;11.76;74.48
57709;SHT35;42558;52.388;13.390;2023-05-16T08:40:28;11.60;74.97
57709;SHT35;42558;52.388;13.390;2023-05-16T08:42:59;11.67;75.48
57709;SHT35;42558;52.388;13.390;2023-05-16T08:45:30;11.75;75.37
57709;SHT35;42558;52.388;13.390;2023-05-16T08:48:00;11.59;75.18
57709;SHT35;42558;52.388;13.390;2023-05-16T08:50:32;11.48;75.68
57709;SHT35;42558;52.388;13.390;2023-05-16T08:53:05;11.52;75.75
57709;SHT35;42558;52.388;13.390;2023-05-16T08:55:35;11.55;75.55
57709;SHT35;42558;52.388;13.390;2023-05-16T08:58:07;11.63;75.31
57709;SHT35;42558;52.388;13.390;2023-05-16T09:00:35;11.75;75.21
57709;SHT35;42558;52.388;13.390;2023-05-16T09:03:04;11.79;74.83
57709;SHT35;42558;52.388;13.390;2023-05-16T09:05:32;11.75;74.40
57709;SHT35;42558;52.388;13.390;2023-05-16T09:08:00;11.64;74.74
57709;SHT35;42558;52.388;13.390;2023-05-16T09:10:29;11.58;74.82
57709;SHT35;42558;52.388;13.390;2023-05-16T09:12:57;11.68;75.10
57709;SHT35;42558;52.388;13.390;2023-05-16T09:15:30;11.79;74.84
57709;SHT35;42558;52.388;13.390;2023-05-16T09:18:01;11.72;74.77
57709;SHT35;42558;52.388;13.390;2023-05-16T09:20:33;11.69;75.13
57709;SHT35;42558;52.388;13.390;2023-05-16T09:23:03;11.66;75.16
57709;SHT35;42558;52.388;13.390;2023-05-16T09:25:33;11.62;75.21
57709;SHT35;42558;52.388;13.390;2023-05-16T09:28:03;11.60;75.55
57709;SHT35;42558;52.388;13.390;2023-05-16T09:30:33;11.58;75.40
57709;SHT35;42558;52.388;13.390;2023-05-16T09:33:05;11.59;75.76
57709;SHT35;42558;52.388;13.390;2023-05-16T09:35:36;11.62;75.84
57709;SHT35;42558;52.388;13.390;2023-05-16T09:38:13;11.60;75.58
57709;SHT35;42558;52.388;13.390;2023-05-16T09:40:45;11.59;75.60
57709;SHT35;42558;52.388;13.390;2023-05-16T09:43:16;11.53;75.62
57709;SHT35;42558;52.388;13.390;2023-05-16T09:45:47;11.54;75.91
57709;SHT35;42558;52.388;13.390;2023-05-16T09:48:18;11.70;75.80
57709;SHT35;42558;52.388;13.390;2023-05-16T09:50:50;11.77;75.18
57709;SHT35;42558;52.388;13.390;2023-05-16T09:53:28;11.74;75.08
57709;SHT35;42558;52.388;13.390;2023-05-16T09:58:43;11.92;74.76
57709;SHT35;42558;52.388;13.390;2023-05-16T10:01:15;11.92;74.44
57709;SHT35;42558;52.388;13.390;2023-05-16T10:03:44;12.01;74.38
57709;SHT35;42558;52.388;13.390;2023-05-16T10:06:14;12.03;73.90
57709;SHT35;42558;52.388;13.390;2023-05-16T10:08:47;12.19;73.77
57709;SHT35;42558;52.388;13.390;2023-05-16T10:11:20;12.35;73.63
57709;SHT35;42558;52.388;13.390;2023-05-16T10:13:50;12.45;72.76
57709;SHT35;42558;52.388;13.390;2023-05-16T10:16:21;12.29;72.24
57709;SHT35;42558;52.388;13.390;2023-05-16T10:18:53;12.26;72.22
57709;SHT35;42558;52.388;13.390;2023-05-16T10:21:24;12.26;72.22
57709;SHT35;42558;52.388;13.390;2023-05-16T10:23:57;12.29;72.22
57709;SHT35;42558;52.388;13.390;2023-05-16T10:26:33;12.20;72.37
57709;SHT35;42558;52.388;13.390;2023-05-16T10:29:03;12.07;72.52
57709;SHT35;42558;52.388;13.390;2023-05-16T10:31:34;12.05;72.08
57709;SHT35;42558;52.388;13.390;2023-05-16T10:34:06;12.01;72.11
57709;SHT35;42558;52.388;13.390;2023-05-16T10:36:36;11.91;72.10
57709;SHT35;42558;52.388;13.390;2023-05-16T10:39:08;12.00;72.34
57709;SHT35;42558;52.388;13.390;2023-05-16T10:41:40;12.15;71.99
57709;SHT35;42558;52.388;13.390;2023-05-16T10:44:12;12.21;71.52
57709;SHT35;42558;52.388;13.390;2023-05-16T10:46:45;12.28;71.50
57709;SHT35;42558;52.388;13.390;2023-05-16T10:49:21;12.47;71.22
57709;SHT35;42558;52.388;13.390;2023-05-16T10:52:08;12.63;70.87
57709;SHT35;42558;52.388;13.390;2023-05-16T10:54:41;12.98;69.39
57709;SHT35;42558;52.388;13.390;2023-05-16T10:57:19;13.05;67.88
57709;SHT35;42558;52.388;13.390;2023-05-16T10:59:52;13.16;67.87
57709;SHT35;42558;52.388;13.390;2023-05-16T11:02:26;13.24;67.46
57709;SHT35;42558;52.388;13.390;2023-05-16T11:05:01;13.07;67.44
57709;SHT35;42558;52.388;13.390;2023-05-16T11:07:31;12.84;68.10
57709;SHT35;42558;52.388;13.390;2023-05-16T11:10:02;12.60;68.85
57709;SHT35;42558;52.388;13.390;2023-05-16T11:12:48;12.63;69.59
57709;SHT35;42558;52.388;13.390;2023-05-16T11:15:22;12.65;69.07
57709;SHT35;42558;52.388;13.390;2023-05-16T11:18:08;12.58;68.43
57709;SHT35;42558;52.388;13.390;2023-05-16T11:20:44;12.66;68.36
57709;SHT35;42558;52.388;13.390;2023-05-16T11:28:20;13.08;66.50
57709;SHT35;42558;52.388;13.390;2023-05-16T11:30:51;13.10;66.43
57709;SHT35;42558;52.388;13.390;2023-05-16T11:33:23;12.99;66.05
57709;SHT35;42558;52.388;13.390;2023-05-16T11:36:02;12.96;66.18
57709;SHT35;42558;52.388;13.390;2023-05-16T11:38:44;13.04;65.63
57709;SHT35;42558;52.388;13.390;2023-05-16T11:41:12;12.87;65.27
57709;SHT35;42558;52.388;13.390;2023-05-16T11:43:45;12.79;65.66
57709;SHT35;42558;52.388;13.390;2023-05-16T11:46:14;12.90;65.98
57709;SHT35;42558;52.388;13.390;2023-05-16T11:48:45;13.10;65.67
57709;SHT35;42558;52.388;13.390;2023-05-16T11:51:19;12.95;65.44
57709;SHT35;42558;52.388;13.390;2023-05-16T11:53:49;12.92;65.77
57709;SHT35;42558;52.388;13.390;2023-05-16T11:56:19;12.85;66.03
57709;SHT35;42558;52.388;13.390;2023-05-16T11:58:51;12.77;66.04
57709;SHT35;42558;52.388;13.390;2023-05-16T12:01:21;12.81;66.06
57709;SHT35;42558;52.388;13.390;2023-05-16T12:03:55;12.83;65.59
57709;SHT35;42558;52.388;13.390;2023-05-16T12:06:26;12.93;65.36
57709;SHT35;42558;52.388;13.390;2023-05-16T12:08:57;12.88;65.72
57709;SHT35;42558;52.388;13.390;2023-05-16T12:11:26;13.13;65.19
57709;SHT35;42558;52.388;13.390;2023-05-16T12:13:54;13.62;64.56
57709;SHT35;42558;52.388;13.390;2023-05-16T12:16:23;14.20;62.79
57709;SHT35;42558;52.388;13.390;2023-05-16T12:18:51;14.04;60.65
57709;SHT35;42558;52.388;13.390;2023-05-16T12:21:20;14.17;61.84
57709;SHT35;42558;52.388;13.390;2023-05-16T12:23:48;14.34;60.66
57709;SHT35;42558;52.388;13.390;2023-05-16T12:26:22;14.17;60.19
57709;SHT35;42558;52.388;13.390;2023-05-16T12:29:02;14.07;62.10
57709;SHT35;42558;52.388;13.390;2023-05-16T12:31:39;14.32;60.89
57709;SHT35;42558;52.388;13.390;2023-05-16T12:34:14;14.37;59.51
57709;SHT35;42558;52.388;13.390;2023-05-16T12:36:51;14.18;58.67
57709;SHT35;42558;52.388;13.390;2023-05-16T12:39:22;14.13;59.06
57709;SHT35;42558;52.388;13.390;2023-05-16T12:41:52;14.27;59.02
57709;SHT35;42558;52.388;13.390;2023-05-16T12:44:22;14.34;58.94
57709;SHT35;42558;52.388;13.390;2023-05-16T12:46:51;14.25;59.65
57709;SHT35;42558;52.388;13.390;2023-05-16T12:49:21;14.25;59.50
57709;SHT35;42558;52.388;13.390;2023-05-16T12:51:52;14.48;58.57
57709;SHT35;42558;52.388;13.390;2023-05-16T12:54:24;14.45;58.50
57709;SHT35;42558;52.388;13.390;2023-05-16T12:56:54;14.45;58.28
57709;SHT35;42558;52.388;13.390;2023-05-16T12:59:24;14.52;58.23
57709;SHT35;42558;52.388;13.390;2023-05-16T13:01:55;14.56;58.18
57709;SHT35;42558;52.388;13.390;2023-05-16T13:04:25;14.68;57.69
57709;SHT35;42558;52.388;13.390;2023-05-16T13:06:55;14.88;56.41
57709;SHT35;42558;52.388;13.390;2023-05-16T13:09:28;14.85;55.94
57709;SHT35;42558;52.388;13.390;2023-05-16T13:12:01;14.88;56.46
57709;SHT35;42558;52.388;13.390;2023-05-16T13:14:32;15.06;56.54
57709;SHT35;42558;52.388;13.390;2023-05-16T13:17:02;15.35;56.74
57709;SHT35;42558;52.388;13.390;2023-05-16T13:19:32;15.53;54.97
57709;SHT35;42558;52.388;13.390;2023-05-16T13:22:03;15.54;55.29
57709;SHT35;42558;52.388;13.390;2023-05-16T13:24:33;15.28;54.72
57709;SHT35;42558;52.388;13.390;2023-05-16T13:27:03;15.30;55.26
57709;SHT35;42558;52.388;13.390;2023-05-16T13:29:33;15.30;54.21
57709;SHT35;42558;52.388;13.390;2023-05-16T13:32:03;15.26;54.51
57709;SHT35;42558;52.388;13.390;2023-05-16T13:34:34;15.13;54.52
57709;SHT35;42558;52.388;13.390;2023-05-16T13:37:04;15.22;54.86
57709;SHT35;42558;52.388;13.390;2023-05-16T13:39:34;15.23;54.16
57709;SHT35;42558;52.388;13.390;2023-05-16T13:42:05;15.37;53.46
57709;SHT35;42558;52.388;13.390;2023-05-16T13:44:40;15.67;53.05
57709;SHT35;42558;52.388;13.390;2023-05-16T13:47:10;15.97;52.36
57709;SHT35;42558;52.388;13.390;2023-05-16T13:49:41;15.81;51.17
57709;SHT35;42558;52.388;13.390;2023-05-16T13:52:11;15.59;51.80
57709;SHT35;42558;52.388;13.390;2023-05-16T13:54:40;15.60;52.79
57709;SHT35;42558;52.388;13.390;2023-05-16T13:57:10;15.24;52.04
57709;SHT35;42558;52.388;13.390;2023-05-16T13:59:40;15.18;53.08
57709;SHT35;42558;52.388;13.390;2023-05-16T14:02:13;15.30;52.77
57709;SHT35;42558;52.388;13.390;2023-05-16T14:04:44;15.22;52.24
57709;SHT35;42558;52.388;13.390;2023-05-16T14:07:17;15.55;52.41
57709;SHT35;42558;52.388;13.390;2023-05-16T14:09:48;15.76;51.46
57709;SHT35;42558;52.388;13.390;2023-05-16T14:12:18;15.62;51.47
57709;SHT35;42558;52.388;13.390;2023-05-16T14:14:48;15.58;52.34
57709;SHT35;42558;52.388;13.390;2023-05-16T14:17:18;15.51;51.78
57709;SHT35;42558;52.388;13.390;2023-05-16T14:19:48;15.50;51.93
57709;SHT35;42558;52.388;13.390;2023-05-16T14:22:18;15.67;52.11
57709;SHT35;42558;52.388;13.390;2023-05-16T14:24:48;16.02;50.12
57709;SHT35;42558;52.388;13.390;2023-05-16T14:27:19;15.85;50.28
57709;SHT35;42558;52.388;13.390;2023-05-16T14:29:49;15.75;51.20
57709;SHT35;42558;52.388;13.390;2023-05-16T14:32:19;15.73;51.10
57709;SHT35;42558;52.388;13.390;2023-05-16T14:34:49;15.76;50.37
57709;SHT35;42558;52.388;13.390;2023-05-16T14:37:19;15.64;50.55
57709;SHT35;42558;52.388;13.390;2023-05-16T14:39:49;15.79;50.80
57709;SHT35;42558;52.388;13.390;2023-05-16T14:42:21;15.86;50.98
57709;SHT35;42558;52.388;13.390;2023-05-16T14:44:51;16.10;51.67
57709;SHT35;42558;52.388;13.390;2023-05-16T14:47:22;16.31;49.95
57709;SHT35;42558;52.388;13.390;2023-05-16T14:49:52;16.36;49.31
57709;SHT35;42558;52.388;13.390;2023-05-16T14:52:22;16.50;47.95
57709;SHT35;42558;52.388;13.390;2023-05-16T14:54:52;16.95;47.01
57709;SHT35;42558;52.388;13.390;2023-05-16T14:57:22;17.19;45.25
57709;SHT35;42558;52.388;13.390;2023-05-16T14:59:52;17.50;44.73
57709;SHT35;42558;52.388;13.390;2023-05-16T15:02:22;17.34;44.78
57709;SHT35;42558;52.388;13.390;2023-05-16T15:04:52;17.32;44.24
57709;SHT35;42558;52.388;13.390;2023-05-16T15:07:23;17.08;44.22
57709;SHT35;42558;52.388;13.390;2023-05-16T15:09:53;16.85;45.59
57709;SHT35;42558;52.388;13.390;2023-05-16T15:12:23;16.93;46.26
57709;SHT35;42558;52.388;13.390;2023-05-16T15:14:53;16.79;45.49
57709;SHT35;42558;52.388;13.390;2023-05-16T15:17:23;16.81;45.56
57709;SHT35;42558;52.388;13.390;2023-05-16T15:19:52;17.33;44.52
57709;SHT35;42558;52.388;13.390;2023-05-16T15:22:20;17.85;42.82
57709;SHT35;42558;52.388;13.390;2023-05-16T15:24:49;17.65;41.72
57709;SHT35;42558;52.388;13.390;2023-05-16T15:27:17;17.42;41.61
57709;SHT35;42558;52.388;13.390;2023-05-16T15:29:47;17.53;42.27
57709;SHT35;42558;52.388;13.390;2023-05-16T15:32:17;17.72;41.97
57709;SHT35;42558;52.388;13.390;2023-05-16T15:34:46;17.49;41.87
57709;SHT35;42558;52.388;13.390;2023-05-16T15:37:14;17.46;42.13
57709;SHT35;42558;52.388;13.390;2023-05-16T15:39:43;17.80;42.98
57709;SHT35;42558;52.388;13.390;2023-05-16T15:42:12;18.04;40.60
57709;SHT35;42558;52.388;13.390;2023-05-16T15:44:43;17.59;42.02
57709;SHT35;42558;52.388;13.390;2023-05-16T15:47:11;16.97;41.60
57709;SHT35;42558;52.388;13.390;2023-05-16T15:49:40;16.92;41.83
57709;SHT35;42558;52.388;13.390;2023-05-16T15:52:08;16.98;41.35
57709;SHT35;42558;52.388;13.390;2023-05-16T15:54:36;17.27;42.11
57709;SHT35;42558;52.388;13.390;2023-05-16T15:57:05;17.11;40.78
57709;SHT35;42558;52.388;13.390;2023-05-16T15:59:33;16.68;40.41